Time;durP1;ratioP1;P1;durP2;ratioP2;P2;SDS_P1;SDS_P2;PMS_P1;PMS_P2;Temp;Humidity;BMP_temperature;BMP_pressure;BME280_temperature;BME280_humidity;BME280_pressure;Samples;Min_cycle;Max_cycle;Signal;HPM_P1;HPM_P2
2021/05/27 00:00:45;;;;;;;26.52;12.18;;;;;;;;;;5040138;28;39333;-75
2021/05/27 00:03:12;;;;;;;26.50;11.27;;;;;;;;;;5038500;28;38300;-76
2021/05/27 00:05:38;;;;;;;24.75;9.90;;;;;;;;;;5033080;28;39437;-76
2021/05/27 00:08:05;;;;;;;25.90;10.07;;;;;;;;;;5060187;28;36778;-75
2021/05/27 00:10:32;;;;;;;20.27;8.43;;;;;;;;;;5067305;27;38169;-75
2021/05/27 00:12:59;;;;;;;25.50;9.60;;;;;;;;;;5034403;28;38438;-76
2021/05/27 00:15:27;;;;;;;22.27;9.13;;;;;;;;;;5060496;28;37330;-75
2021/05/27 00:17:53;;;;;;;25.90;9.40;;;;;;;;;;5029102;28;35449;-76
2021/05/27 00:20:20;;;;;;;20.77;9.90;;;;;;;;;;5036124;27;38868;-74
2021/05/27 00:22:47;;;;;;;28.30;12.02;;;;;;;;;;5033355;28;38648;-76
2021/05/27 00:25:14;;;;;;;24.90;10.90;;;;;;;;;;5037555;28;38250;-76
2021/05/27 00:27:44;;;;;;;22.05;9.18;;;;;;;;;;5034732;28;37611;-76
2021/05/27 00:30:11;;;;;;;22.35;9.82;;;;;;;;;;5059796;27;37814;-75
2021/05/27 00:32:38;;;;;;;23.20;9.18;;;;;;;;;;5059148;28;37610;-75
2021/05/27 00:35:05;;;;;;;19.10;8.55;;;;;;;;;;5060815;28;36624;-76
2021/05/27 00:37:32;;;;;;;20.20;9.20;;;;;;;;;;5033135;28;47672;-75
2021/05/27 00:39:58;;;;;;;22.80;9.63;;;;;;;;;;5059405;27;38159;-76
2021/05/27 00:42:25;;;;;;;24.42;9.45;;;;;;;;;;5034264;28;38288;-76
2021/05/27 00:45:01;;;;;;;18.38;8.95;;;;;;;;;;5031674;28;37874;-75
2021/05/27 00:47:28;;;;;;;22.90;8.82;;;;;;;;;;5038170;28;46804;-75
2021/05/27 00:49:54;;;;;;;24.25;8.50;;;;;;;;;;5038591;27;38503;-75
2021/05/27 00:52:21;;;;;;;19.13;7.97;;;;;;;;;;5035774;28;38406;-76
2021/05/27 00:54:49;;;;;;;21.50;7.90;;;;;;;;;;5031593;28;37999;-75
2021/05/27 00:57:22;;;;;;;19.70;8.75;;;;;;;;;;5060952;28;35500;-77
2021/05/27 00:59:49;;;;;;;17.85;8.63;;;;;;;;;;5032958;28;39180;-77
2021/05/27 01:02:15;;;;;;;19.35;9.23;;;;;;;;;;5030418;28;38479;-77
2021/05/27 01:04:41;;;;;;;26.60;9.73;;;;;;;;;;5035760;28;37481;-75
2021/05/27 01:07:08;;;;;;;21.33;9.02;;;;;;;;;;5035228;27;36790;-75
2021/05/27 01:09:34;;;;;;;18.95;8.63;;;;;;;;;;5064405;28;37898;-76
2021/05/27 01:12:01;;;;;;;20.02;9.30;;;;;;;;;;5035587;28;39156;-75
2021/05/27 01:17:12;;;;;;;23.05;8.75;;;;;;;;;;5030166;28;38317;-76
2021/05/27 01:19:39;;;;;;;19.40;8.15;;;;;;;;;;5030400;28;39448;-77
2021/05/27 01:22:05;;;;;;;24.20;8.57;;;;;;;;;;5059396;27;38488;-75
2021/05/27 01:24:31;;;;;;;20.15;9.52;;;;;;;;;;5033822;27;37920;-75
2021/05/27 01:26:58;;;;;;;25.73;8.20;;;;;;;;;;5033749;28;36675;-77
2021/05/27 01:29:24;;;;;;;19.13;8.48;;;;;;;;;;5027921;28;39643;-75
2021/05/27 01:31:50;;;;;;;21.02;8.77;;;;;;;;;;5034364;28;38615;-74
2021/05/27 01:34:17;;;;;;;26.17;8.25;;;;;;;;;;5033672;28;37862;-76
2021/05/27 01:36:44;;;;;;;25.92;8.77;;;;;;;;;;5029823;28;38517;-75
2021/05/27 01:39:11;;;;;;;21.48;8.98;;;;;;;;;;5059655;28;37794;-76
2021/05/27 01:41:37;;;;;;;24.02;9.35;;;;;;;;;;5061146;27;38776;-75
2021/05/27 01:44:04;;;;;;;20.67;8.20;;;;;;;;;;5031953;28;35927;-76
2021/05/27 01:46:30;;;;;;;22.25;8.00;;;;;;;;;;5036230;28;36779;-76
2021/05/27 01:48:57;;;;;;;24.52;9.32;;;;;;;;;;5033436;28;38936;-77
2021/05/27 01:51:23;;;;;;;22.02;9.23;;;;;;;;;;5028091;28;38666;-77
2021/05/27 01:53:50;;;;;;;24.95;9.40;;;;;;;;;;5036545;28;37498;-76
2021/05/27 01:56:16;;;;;;;21.02;8.55;;;;;;;;;;5035381;27;36883;-76
2021/05/27 01:58:42;;;;;;;21.73;8.18;;;;;;;;;;5030689;28;39854;-76
2021/05/27 02:01:09;;;;;;;22.90;7.78;;;;;;;;;;5027518;27;38668;-76
2021/05/27 02:03:35;;;;;;;24.35;7.35;;;;;;;;;;5063681;28;38947;-76
2021/05/27 02:06:02;;;;;;;16.73;6.60;;;;;;;;;;5036786;28;37879;-76
2021/05/27 02:08:28;;;;;;;18.38;7.22;;;;;;;;;;5042221;28;37611;-77
2021/05/27 02:10:54;;;;;;;22.90;8.40;;;;;;;;;;5032570;28;37332;-75
2021/05/27 02:13:21;;;;;;;18.52;6.85;;;;;;;;;;5063242;28;37952;-77
2021/05/27 02:15:47;;;;;;;15.45;7.35;;;;;;;;;;5066120;28;35973;-76
2021/05/27 02:18:13;;;;;;;24.10;7.43;;;;;;;;;;5036031;28;39099;-75
2021/05/27 02:20:40;;;;;;;17.88;6.18;;;;;;;;;;5035899;28;39247;-77
2021/05/27 02:23:06;;;;;;;20.63;6.10;;;;;;;;;;5062105;28;38850;-76
2021/05/27 02:25:33;;;;;;;24.25;6.65;;;;;;;;;;5063256;28;35647;-75
2021/05/27 02:27:59;;;;;;;24.30;7.07;;;;;;;;;;5060428;28;40546;-76
2021/05/27 02:30:26;;;;;;;21.20;6.45;;;;;;;;;;5039204;28;39632;-75
2021/05/27 02:32:52;;;;;;;21.65;6.22;;;;;;;;;;5035237;28;35621;-76
2021/05/27 02:35:18;;;;;;;20.27;7.40;;;;;;;;;;5058048;28;37499;-75
2021/05/27 02:37:45;;;;;;;19.63;6.30;;;;;;;;;;5033106;28;39160;-76
2021/05/27 02:40:12;;;;;;;18.17;6.93;;;;;;;;;;5061563;27;40097;-77
2021/05/27 02:42:38;;;;;;;17.48;6.47;;;;;;;;;;5063769;28;38787;-75
2021/05/27 02:45:05;;;;;;;25.50;6.93;;;;;;;;;;5034471;28;36484;-75
2021/05/27 02:47:31;;;;;;;28.17;7.03;;;;;;;;;;5067131;28;39429;-76
2021/05/27 02:49:57;;;;;;;20.08;6.07;;;;;;;;;;5041842;28;39013;-75
2021/05/27 02:52:24;;;;;;;19.60;5.47;;;;;;;;;;5038711;28;37540;-77
2021/05/27 02:54:50;;;;;;;22.05;6.45;;;;;;;;;;5034621;28;38650;-75
2021/05/27 02:57:16;;;;;;;14.52;5.70;;;;;;;;;;5036883;28;39169;-77
2021/05/27 02:59:43;;;;;;;22.50;6.63;;;;;;;;;;5033226;28;36449;-76
2021/05/27 03:02:09;;;;;;;19.10;6.22;;;;;;;;;;5059884;28;39661;-75
2021/05/27 03:04:36;;;;;;;25.13;8.35;;;;;;;;;;5030237;28;36538;-77
2021/05/27 03:07:02;;;;;;;19.55;6.15;;;;;;;;;;5036137;27;38299;-77
2021/05/27 03:09:29;;;;;;;23.00;7.45;;;;;;;;;;5036624;28;38202;-75
2021/05/27 03:11:55;;;;;;;23.40;6.75;;;;;;;;;;5032390;28;39701;-76
2021/05/27 03:14:22;;;;;;;23.45;6.18;;;;;;;;;;5050659;28;37152;-77
2021/05/27 03:16:48;;;;;;;17.73;6.03;;;;;;;;;;5059052;27;39593;-77
2021/05/27 03:19:14;;;;;;;22.83;6.03;;;;;;;;;;5060687;28;36959;-76
2021/05/27 03:21:41;;;;;;;15.13;5.05;;;;;;;;;;5038371;28;39094;-77
2021/05/27 03:24:08;;;;;;;19.48;5.45;;;;;;;;;;5035904;28;36237;-76
2021/05/27 03:26:34;;;;;;;22.10;7.10;;;;;;;;;;5033268;28;39962;-76
2021/05/27 03:29:00;;;;;;;25.17;6.90;;;;;;;;;;5032637;28;39773;-76
2021/05/27 03:31:27;;;;;;;16.75;6.22;;;;;;;;;;5058980;27;38127;-76
2021/05/27 03:33:53;;;;;;;14.48;5.03;;;;;;;;;;5051941;28;37344;-77
2021/05/27 03:36:19;;;;;;;23.85;7.30;;;;;;;;;;5054792;28;39277;-76
2021/05/27 03:38:45;;;;;;;20.90;6.95;;;;;;;;;;5045406;28;37346;-75
2021/05/27 03:41:12;;;;;;;19.20;6.53;;;;;;;;;;5034196;27;37553;-75
2021/05/27 03:43:38;;;;;;;33.30;7.30;;;;;;;;;;5045132;28;36732;-76
2021/05/27 03:46:05;;;;;;;19.95;5.78;;;;;;;;;;5032450;28;39901;-78
2021/05/27 03:48:31;;;;;;;16.23;5.47;;;;;;;;;;5031723;28;39581;-75
2021/05/27 03:50:57;;;;;;;16.10;5.30;;;;;;;;;;5039113;28;37513;-75
2021/05/27 03:53:24;;;;;;;14.25;4.90;;;;;;;;;;5038484;28;36685;-75
2021/05/27 03:55:50;;;;;;;21.17;6.43;;;;;;;;;;5035581;28;40103;-76
2021/05/27 04:01:02;;;;;;;16.42;6.50;;;;;;;;;;5031266;28;38836;-74
2021/05/27 04:07:04;;;;;;;21.58;6.30;;;;;;;;;;5029542;28;37712;-75
2021/05/27 04:09:00;;;;;;;18.02;6.05;;;;;;;;;;5033726;28;38960;-76
2021/05/27 04:11:26;;;;;;;22.92;6.85;;;;;;;;;;5031415;27;38953;-75
2021/05/27 04:13:52;;;;;;;14.93;6.47;;;;;;;;;;5033908;28;37402;-75
2021/05/27 04:16:19;;;;;;;18.85;5.40;;;;;;;;;;5033372;27;38763;-75
2021/05/27 04:18:45;;;;;;;15.38;5.68;;;;;;;;;;5069044;28;37215;-75
2021/05/27 04:21:11;;;;;;;16.63;5.53;;;;;;;;;;5036196;28;37980;-76
2021/05/27 04:23:39;;;;;;;19.95;5.95;;;;;;;;;;5032291;28;37064;-77
2021/05/27 04:26:12;;;;;;;23.60;7.80;;;;;;;;;;5060581;28;39195;-74
2021/05/27 04:28:39;;;;;;;21.23;6.57;;;;;;;;;;5032090;28;38678;-75
2021/05/27 04:31:08;;;;;;;23.58;7.13;;;;;;;;;;5057408;27;39372;-75
2021/05/27 04:33:35;;;;;;;21.90;6.82;;;;;;;;;;5036404;28;37275;-75
2021/05/27 04:36:02;;;;;;;20.52;6.30;;;;;;;;;;5058028;28;39140;-77
2021/05/27 04:38:28;;;;;;;19.52;5.63;;;;;;;;;;5040089;28;47280;-75
2021/05/27 04:40:54;;;;;;;17.90;5.82;;;;;;;;;;5029441;28;38699;-75
2021/05/27 04:43:21;;;;;;;13.48;6.00;;;;;;;;;;5031476;28;37015;-76
2021/05/27 04:45:47;;;;;;;19.85;6.63;;;;;;;;;;5032287;28;40792;-75
2021/05/27 04:48:15;;;;;;;20.70;6.65;;;;;;;;;;5035350;28;37870;-75
2021/05/27 04:50:42;;;;;;;18.33;5.80;;;;;;;;;;5032525;27;38493;-76
2021/05/27 04:53:09;;;;;;;20.08;5.97;;;;;;;;;;5042365;28;38314;-77
2021/05/27 04:55:35;;;;;;;16.35;5.75;;;;;;;;;;5058850;28;40011;-75
2021/05/27 04:58:02;;;;;;;18.17;5.25;;;;;;;;;;5061626;28;39930;-75
2021/05/27 05:00:29;;;;;;;19.45;5.47;;;;;;;;;;5031663;28;37754;-75
2021/05/27 05:02:59;;;;;;;17.85;6.10;;;;;;;;;;5036621;28;39109;-76
2021/05/27 05:05:26;;;;;;;16.05;5.32;;;;;;;;;;5035236;28;38921;-76
2021/05/27 05:07:54;;;;;;;16.70;5.32;;;;;;;;;;5055398;28;39483;-75
2021/05/27 05:10:21;;;;;;;20.48;6.93;;;;;;;;;;5056567;28;38151;-75
2021/05/27 05:12:49;;;;;;;22.13;6.25;;;;;;;;;;5034330;28;37084;-75
2021/05/27 05:15:17;;;;;;;20.27;6.18;;;;;;;;;;5029515;28;38808;-75
2021/05/27 05:17:47;;;;;;;18.13;5.38;;;;;;;;;;5030713;28;39432;-74
2021/05/27 05:20:13;;;;;;;17.77;5.60;;;;;;;;;;5034329;28;38349;-74
2021/05/27 05:22:39;;;;;;;16.40;5.53;;;;;;;;;;5036586;28;37744;-75
2021/05/27 05:25:06;;;;;;;17.80;5.72;;;;;;;;;;5036678;28;40112;-75
2021/05/27 05:27:33;;;;;;;28.20;8.00;;;;;;;;;;5035664;28;40165;-74
2021/05/27 05:29:59;;;;;;;14.15;5.43;;;;;;;;;;5066334;28;37439;-75
2021/05/27 05:32:26;;;;;;;16.13;5.47;;;;;;;;;;5056075;28;36959;-75
2021/05/27 05:34:54;;;;;;;18.23;5.32;;;;;;;;;;5052442;28;39807;-75
2021/05/27 05:37:20;;;;;;;13.07;5.32;;;;;;;;;;5059281;28;38976;-75
2021/05/27 05:39:47;;;;;;;19.92;5.32;;;;;;;;;;5057382;28;37665;-75
2021/05/27 05:42:13;;;;;;;11.38;4.28;;;;;;;;;;5065903;27;37924;-75
2021/05/27 05:44:39;;;;;;;15.20;4.88;;;;;;;;;;5053310;27;38521;-75
2021/05/27 05:47:06;;;;;;;14.65;4.82;;;;;;;;;;5064725;27;38284;-75
2021/05/27 05:49:32;;;;;;;13.25;4.68;;;;;;;;;;5063655;28;38688;-75
2021/05/27 05:51:58;;;;;;;15.30;4.70;;;;;;;;;;5060912;28;38766;-75
2021/05/27 05:54:25;;;;;;;14.65;4.95;;;;;;;;;;5057300;27;40027;-75
2021/05/27 05:56:51;;;;;;;17.88;5.07;;;;;;;;;;5078828;27;38905;-74
2021/05/27 05:59:18;;;;;;;13.80;4.18;;;;;;;;;;5060609;27;37250;-75
2021/05/27 06:01:44;;;;;;;21.13;5.97;;;;;;;;;;5058818;27;37079;-76
2021/05/27 06:04:10;;;;;;;14.70;5.07;;;;;;;;;;5048086;28;40492;-75
2021/05/27 06:06:37;;;;;;;16.02;5.30;;;;;;;;;;5053241;27;38321;-74
2021/05/27 06:09:03;;;;;;;17.08;5.65;;;;;;;;;;5064334;27;37441;-75
2021/05/27 06:11:30;;;;;;;21.35;5.45;;;;;;;;;;5057461;28;37234;-77
2021/05/27 06:13:56;;;;;;;12.80;5.47;;;;;;;;;;5059644;27;38824;-74
2021/05/27 06:16:22;;;;;;;18.65;5.75;;;;;;;;;;5055355;28;38857;-75
2021/05/27 06:18:49;;;;;;;14.25;4.93;;;;;;;;;;5059245;27;39326;-75
2021/05/27 06:21:15;;;;;;;15.00;5.07;;;;;;;;;;5045814;28;36873;-74
2021/05/27 06:23:42;;;;;;;15.05;4.53;;;;;;;;;;5045837;28;39069;-75
2021/05/27 06:26:09;;;;;;;20.17;4.87;;;;;;;;;;5041311;27;38932;-75
2021/05/27 06:28:36;;;;;;;17.13;5.28;;;;;;;;;;5033711;28;38883;-74
2021/05/27 06:31:02;;;;;;;17.65;5.28;;;;;;;;;;5036085;28;36219;-75
2021/05/27 06:33:29;;;;;;;20.52;5.32;;;;;;;;;;5036728;28;39900;-74
2021/05/27 06:35:55;;;;;;;25.02;6.70;;;;;;;;;;5036257;28;39235;-75
2021/05/27 06:38:21;;;;;;;18.20;5.93;;;;;;;;;;5065496;28;38291;-77
2021/05/27 06:40:48;;;;;;;19.20;5.50;;;;;;;;;;5036689;28;38449;-76
2021/05/27 06:43:14;;;;;;;16.58;5.65;;;;;;;;;;5065967;28;40787;-74
2021/05/27 06:45:40;;;;;;;18.80;5.32;;;;;;;;;;5039075;28;40156;-77
2021/05/27 06:48:07;;;;;;;14.75;5.15;;;;;;;;;;5079629;28;39653;-77
2021/05/27 06:50:35;;;;;;;17.55;5.10;;;;;;;;;;5066255;28;37058;-76
2021/05/27 06:53:03;;;;;;;19.63;5.15;;;;;;;;;;5041324;28;39801;-76
2021/05/27 06:55:30;;;;;;;14.90;4.65;;;;;;;;;;5054054;28;39969;-76
2021/05/27 06:57:56;;;;;;;17.05;4.22;;;;;;;;;;5062848;27;37583;-76
2021/05/27 07:00:23;;;;;;;13.43;4.22;;;;;;;;;;5053950;28;37201;-75
2021/05/27 07:02:51;;;;;;;20.38;6.10;;;;;;;;;;5052819;28;39031;-76
2021/05/27 07:05:18;;;;;;;15.20;4.43;;;;;;;;;;5048781;27;41870;-76
2021/05/27 07:07:44;;;;;;;14.88;5.57;;;;;;;;;;5058352;27;39634;-75
2021/05/27 07:10:11;;;;;;;12.98;5.18;;;;;;;;;;5055563;27;37738;-76
2021/05/27 07:12:37;;;;;;;13.40;4.63;;;;;;;;;;5050342;28;38376;-75
2021/05/27 07:15:04;;;;;;;18.88;5.20;;;;;;;;;;5050735;27;38575;-76
2021/05/27 07:17:31;;;;;;;17.23;4.18;;;;;;;;;;5043839;28;47103;-76
2021/05/27 07:19:58;;;;;;;19.13;5.13;;;;;;;;;;5061287;27;35757;-76
2021/05/27 07:22:24;;;;;;;18.30;4.70;;;;;;;;;;5059020;28;38805;-76
2021/05/27 07:24:50;;;;;;;11.07;4.63;;;;;;;;;;5048974;28;39011;-76
2021/05/27 07:27:17;;;;;;;14.60;4.78;;;;;;;;;;5059181;28;38323;-76
2021/05/27 07:29:43;;;;;;;16.33;4.50;;;;;;;;;;5059289;27;37719;-76
2021/05/27 07:32:10;;;;;;;12.93;4.45;;;;;;;;;;5057904;27;38887;-75
2021/05/27 07:34:37;;;;;;;17.25;4.80;;;;;;;;;;5061382;28;40083;-75
2021/05/27 07:37:04;;;;;;;14.30;4.50;;;;;;;;;;5052178;28;39253;-75
2021/05/27 07:39:31;;;;;;;14.00;4.38;;;;;;;;;;5060565;28;37575;-75
2021/05/27 07:41:57;;;;;;;19.10;4.40;;;;;;;;;;5056358;28;40336;-74
2021/05/27 07:44:23;;;;;;;14.80;4.55;;;;;;;;;;5057376;27;40156;-75
2021/05/27 07:46:50;;;;;;;12.93;4.53;;;;;;;;;;5052779;27;38600;-75
2021/05/27 07:49:16;;;;;;;15.43;4.10;;;;;;;;;;5074591;27;37678;-75
2021/05/27 07:51:43;;;;;;;12.77;3.65;;;;;;;;;;5049978;27;39677;-78
2021/05/27 07:54:10;;;;;;;17.65;3.75;;;;;;;;;;5060411;28;39200;-78
2021/05/27 07:56:36;;;;;;;12.43;4.00;;;;;;;;;;5057077;27;38055;-77
2021/05/27 07:59:03;;;;;;;15.23;4.07;;;;;;;;;;5054531;28;35817;-77
2021/05/27 08:01:29;;;;;;;18.65;4.25;;;;;;;;;;5052168;28;39764;-78
2021/05/27 08:03:56;;;;;;;13.52;4.43;;;;;;;;;;5054661;28;38466;-77
2021/05/27 08:06:22;;;;;;;13.27;4.47;;;;;;;;;;5046790;27;39418;-77
2021/05/27 08:08:49;;;;;;;16.05;4.90;;;;;;;;;;5052975;28;38095;-78
2021/05/27 08:11:15;;;;;;;13.38;4.78;;;;;;;;;;5061839;28;40942;-78
2021/05/27 08:13:42;;;;;;;15.07;5.10;;;;;;;;;;5058013;28;40753;-79
2021/05/27 08:16:08;;;;;;;20.95;5.18;;;;;;;;;;5053441;28;38384;-78
2021/05/27 08:18:35;;;;;;;13.48;4.22;;;;;;;;;;5057969;27;36795;-77
2021/05/27 08:21:01;;;;;;;13.73;4.03;;;;;;;;;;5057289;28;38671;-78
2021/05/27 08:23:27;;;;;;;18.42;4.35;;;;;;;;;;5062846;28;47360;-78
2021/05/27 08:25:54;;;;;;;16.10;3.85;;;;;;;;;;5059475;28;37640;-77
2021/05/27 08:28:20;;;;;;;14.52;4.47;;;;;;;;;;5057227;28;38492;-77
2021/05/27 08:30:46;;;;;;;12.10;4.45;;;;;;;;;;5058720;28;39623;-79
2021/05/27 08:33:13;;;;;;;21.38;4.38;;;;;;;;;;5051064;28;38891;-75
2021/05/27 08:35:39;;;;;;;11.40;3.78;;;;;;;;;;5057642;28;37973;-74
2021/05/27 08:38:06;;;;;;;14.13;3.80;;;;;;;;;;5064616;27;37301;-76
2021/05/27 08:40:32;;;;;;;11.07;3.58;;;;;;;;;;5059943;28;40844;-75
2021/05/27 08:42:59;;;;;;;16.17;3.92;;;;;;;;;;5078220;28;40261;-81
2021/05/27 08:45:30;;;;;;;11.38;4.15;;;;;;;;;;5068941;27;39156;-78
2021/05/27 08:47:57;;;;;;;13.90;4.03;;;;;;;;;;5086989;27;37376;-77
2021/05/27 08:50:30;;;;;;;13.82;4.03;;;;;;;;;;5082661;28;38474;-76
2021/05/27 08:52:59;;;;;;;16.23;3.97;;;;;;;;;;5083042;27;38892;-76
2021/05/27 08:55:25;;;;;;;14.55;4.40;;;;;;;;;;5079758;27;38858;-77
2021/05/27 08:57:52;;;;;;;15.80;4.03;;;;;;;;;;5091553;28;35346;-76
2021/05/27 09:00:18;;;;;;;12.52;4.38;;;;;;;;;;5082000;27;38692;-78
2021/05/27 09:03:01;;;;;;;15.25;3.88;;;;;;;;;;5081257;27;38203;-78
2021/05/27 09:05:29;;;;;;;13.15;4.25;;;;;;;;;;5067321;27;49536;-75
2021/05/27 09:07:56;;;;;;;18.15;4.75;;;;;;;;;;5064567;27;37722;-75
2021/05/27 09:10:38;;;;;;;18.73;5.20;;;;;;;;;;5057819;28;39158;-76
2021/05/27 09:13:08;;;;;;;13.60;5.25;;;;;;;;;;5056812;27;38416;-77
2021/05/27 09:15:35;;;;;;;21.17;5.60;;;;;;;;;;5057787;27;37692;-76
2021/05/27 09:18:01;;;;;;;16.83;4.97;;;;;;;;;;5065361;27;37387;-77
2021/05/27 09:20:28;;;;;;;13.98;4.90;;;;;;;;;;5062388;28;47024;-74
2021/05/27 09:23:08;;;;;;;18.90;5.07;;;;;;;;;;5055759;27;38495;-77
2021/05/27 09:25:36;;;;;;;21.00;4.50;;;;;;;;;;5056549;28;48390;-75
2021/05/27 09:28:03;;;;;;;15.05;4.13;;;;;;;;;;5059475;27;37673;-78
2021/05/27 09:30:30;;;;;;;18.08;4.03;;;;;;;;;;5053021;28;40743;-74
2021/05/27 09:32:56;;;;;;;16.73;4.50;;;;;;;;;;5051705;28;38095;-75
2021/05/27 09:35:23;;;;;;;10.95;3.78;;;;;;;;;;5051180;28;38224;-76
2021/05/27 09:37:53;;;;;;;13.82;3.65;;;;;;;;;;5055403;28;37625;-76
2021/05/27 09:40:30;;;;;;;13.35;3.80;;;;;;;;;;5058671;27;40512;-76
2021/05/27 09:42:58;;;;;;;20.08;4.63;;;;;;;;;;5058472;28;39750;-75
2021/05/27 09:45:25;;;;;;;20.02;4.70;;;;;;;;;;5066731;27;37869;-75
2021/05/27 09:47:52;;;;;;;13.90;4.97;;;;;;;;;;5059984;28;38124;-77
2021/05/27 09:50:18;;;;;;;17.15;4.75;;;;;;;;;;5057677;27;39749;-76
2021/05/27 09:52:45;;;;;;;17.70;5.28;;;;;;;;;;5062920;28;39566;-76
2021/05/27 09:55:16;;;;;;;26.05;5.25;;;;;;;;;;5063462;28;37928;-74
2021/05/27 09:57:43;;;;;;;17.58;4.85;;;;;;;;;;5064283;28;37764;-74
2021/05/27 10:00:22;;;;;;;19.98;4.75;;;;;;;;;;5062026;27;38744;-77
2021/05/27 10:02:49;;;;;;;21.75;5.95;;;;;;;;;;5060671;27;39191;-74
2021/05/27 10:05:15;;;;;;;21.17;5.25;;;;;;;;;;5058060;28;38391;-78
2021/05/27 10:07:43;;;;;;;18.02;4.85;;;;;;;;;;5061775;28;37337;-77
2021/05/27 10:10:10;;;;;;;23.77;5.85;;;;;;;;;;5046855;28;39418;-78
2021/05/27 10:12:43;;;;;;;26.95;5.68;;;;;;;;;;5061478;27;39012;-77
2021/05/27 10:15:17;;;;;;;25.95;6.15;;;;;;;;;;5055746;27;37415;-77
2021/05/27 10:17:46;;;;;;;18.60;5.88;;;;;;;;;;5061888;28;36413;-76
2021/05/27 10:20:14;;;;;;;21.65;5.55;;;;;;;;;;5061440;27;40339;-77
2021/05/27 10:22:43;;;;;;;25.83;6.80;;;;;;;;;;5073635;27;38102;-76
2021/05/27 10:25:11;;;;;;;31.17;6.50;;;;;;;;;;5062850;28;39804;-77
2021/05/27 10:27:37;;;;;;;23.15;6.63;;;;;;;;;;5053394;27;37718;-75
2021/05/27 10:30:05;;;;;;;24.38;6.22;;;;;;;;;;5057765;27;37078;-75
2021/05/27 10:32:32;;;;;;;20.35;5.50;;;;;;;;;;5062517;28;47350;-76
2021/05/27 10:34:59;;;;;;;21.08;5.72;;;;;;;;;;5037687;28;39244;-76
2021/05/27 10:37:36;;;;;;;21.55;5.60;;;;;;;;;;5032852;28;37169;-76
2021/05/27 10:40:23;;;;;;;23.50;5.18;;;;;;;;;;5039508;27;38898;-76
2021/05/27 10:43:04;;;;;;;17.00;5.40;;;;;;;;;;5035433;27;48695;-75
2021/05/27 10:45:32;;;;;;;27.35;5.35;;;;;;;;;;5047947;27;47753;-74
2021/05/27 10:48:14;;;;;;;18.85;5.30;;;;;;;;;;5048272;28;35817;-73
2021/05/27 10:53:37;;;;;;;19.65;4.80;;;;;;;;;;5061357;27;39508;-74
2021/05/27 10:56:04;;;;;;;20.85;4.82;;;;;;;;;;5050304;27;37942;-74
2021/05/27 10:58:49;;;;;;;14.48;4.07;;;;;;;;;;5058441;28;35645;-75
2021/05/27 11:01:36;;;;;;;15.98;3.97;;;;;;;;;;5052997;28;39307;-75
2021/05/27 11:04:04;;;;;;;12.18;3.80;;;;;;;;;;5051647;27;39183;-74
2021/05/27 11:06:32;;;;;;;12.23;3.42;;;;;;;;;;5058263;27;37949;-74
2021/05/27 11:09:11;;;;;;;17.00;4.18;;;;;;;;;;5060214;28;36859;-74
2021/05/27 11:11:47;;;;;;;16.75;3.85;;;;;;;;;;5034869;28;49968;-74
2021/05/27 11:14:19;;;;;;;17.63;4.15;;;;;;;;;;5034254;27;39534;-74
2021/05/27 11:17:09;;;;;;;15.05;3.70;;;;;;;;;;5037729;28;37899;-77
2021/05/27 11:20:05;;;;;;;13.80;3.47;;;;;;;;;;5059501;28;48773;-74
2021/05/27 11:22:28;;;;;;;14.40;4.45;;;;;;;;;;5039445;28;38552;-75
2021/05/27 11:27:39;;;;;;;14.85;4.63;;;;;;;;;;5058873;28;48843;-75
2021/05/27 11:30:23;;;;;;;13.63;4.10;;;;;;;;;;5060341;28;37938;-76
2021/05/27 11:32:53;;;;;;;14.80;4.32;;;;;;;;;;5062754;28;47210;-77
2021/05/27 11:35:20;;;;;;;15.45;4.57;;;;;;;;;;5068944;28;37857;-77
2021/05/27 11:37:48;;;;;;;12.73;4.68;;;;;;;;;;5054127;28;37663;-76
2021/05/27 11:40:16;;;;;;;22.35;5.57;;;;;;;;;;5032249;27;36754;-75
2021/05/27 11:42:52;;;;;;;16.65;4.97;;;;;;;;;;5041959;28;37609;-76
2021/05/27 11:45:20;;;;;;;19.35;5.25;;;;;;;;;;5060883;27;39173;-76
2021/05/27 11:48:06;;;;;;;24.05;5.32;;;;;;;;;;5057482;28;36571;-76
2021/05/27 11:50:33;;;;;;;14.10;4.65;;;;;;;;;;5057014;27;49239;-76
2021/05/27 11:52:59;;;;;;;19.67;5.07;;;;;;;;;;5059711;28;38065;-75
2021/05/27 11:55:27;;;;;;;20.60;5.32;;;;;;;;;;5053722;27;37133;-76
2021/05/27 11:57:54;;;;;;;20.80;5.45;;;;;;;;;;5051320;28;37688;-75
2021/05/27 12:00:21;;;;;;;18.00;4.50;;;;;;;;;;5051646;27;36823;-75
2021/05/27 12:02:48;;;;;;;26.40;5.40;;;;;;;;;;5046961;28;37771;-75
2021/05/27 12:05:23;;;;;;;22.10;4.28;;;;;;;;;;5054087;27;39297;-74
2021/05/27 12:07:57;;;;;;;16.42;3.60;;;;;;;;;;5072368;28;38061;-75
2021/05/27 12:10:24;;;;;;;21.65;3.83;;;;;;;;;;5032747;28;36884;-74
2021/05/27 12:12:50;;;;;;;16.48;4.13;;;;;;;;;;5063273;28;38953;-74
2021/05/27 12:15:18;;;;;;;19.30;3.95;;;;;;;;;;5030458;27;38496;-76
2021/05/27 12:17:46;;;;;;;15.93;4.25;;;;;;;;;;5038878;28;39167;-74
2021/05/27 12:20:15;;;;;;;16.70;3.83;;;;;;;;;;5042027;28;37774;-75
2021/05/27 12:22:44;;;;;;;12.80;3.10;;;;;;;;;;5043821;28;39795;-77
2021/05/27 12:25:11;;;;;;;12.95;3.30;;;;;;;;;;5061208;28;39104;-77
2021/05/27 12:27:48;;;;;;;16.27;3.40;;;;;;;;;;5062067;28;38271;-77
2021/05/27 12:30:25;;;;;;;10.85;3.03;;;;;;;;;;5030859;27;36757;-77
2021/05/27 12:32:53;;;;;;;14.45;3.30;;;;;;;;;;5030416;28;39037;-76
2021/05/27 12:35:21;;;;;;;11.30;3.17;;;;;;;;;;5034227;28;39052;-78
2021/05/27 12:37:48;;;;;;;11.95;3.65;;;;;;;;;;5037873;28;38729;-76
2021/05/27 12:40:44;;;;;;;18.58;4.50;;;;;;;;;;5030705;28;38397;-78
2021/05/27 12:43:24;;;;;;;15.27;3.58;;;;;;;;;;5027327;28;38429;-77
2021/05/27 12:45:51;;;;;;;10.10;3.63;;;;;;;;;;5039450;27;39405;-77
2021/05/27 12:48:18;;;;;;;14.50;3.25;;;;;;;;;;5059044;28;37591;-77
2021/05/27 12:51:05;;;;;;;17.65;3.75;;;;;;;;;;5039450;28;36199;-77
2021/05/27 12:53:35;;;;;;;11.88;3.25;;;;;;;;;;5051668;27;47941;-76
2021/05/27 12:56:13;;;;;;;10.90;2.75;;;;;;;;;;5050665;27;39468;-77
2021/05/27 12:58:43;;;;;;;14.00;3.45;;;;;;;;;;5072587;27;39335;-77
2021/05/27 13:01:10;;;;;;;11.05;3.17;;;;;;;;;;5047296;27;36756;-77
2021/05/27 13:03:52;;;;;;;8.98;2.97;;;;;;;;;;5037620;28;37855;-77
2021/05/27 13:06:20;;;;;;;11.38;3.80;;;;;;;;;;5039276;28;38462;-77
2021/05/27 13:08:46;;;;;;;11.50;3.25;;;;;;;;;;5061979;28;39640;-76
2021/05/27 13:11:26;;;;;;;8.05;3.25;;;;;;;;;;5030580;28;37631;-75
2021/05/27 13:13:53;;;;;;;13.60;3.42;;;;;;;;;;5072951;28;40852;-78
2021/05/27 13:16:33;;;;;;;15.40;3.85;;;;;;;;;;5030353;28;39989;-77
2021/05/27 13:18:59;;;;;;;13.75;3.72;;;;;;;;;;5041210;28;37662;-77
2021/05/27 13:21:58;;;;;;;16.83;3.67;;;;;;;;;;5068334;28;37424;-77
2021/05/27 13:24:26;;;;;;;9.70;3.28;;;;;;;;;;5027740;28;40034;-77
2021/05/27 13:27:04;;;;;;;14.13;3.55;;;;;;;;;;5059728;28;38900;-76
2021/05/27 13:29:50;;;;;;;10.85;3.08;;;;;;;;;;5065379;27;47429;-76
2021/05/27 13:32:19;;;;;;;11.63;3.10;;;;;;;;;;5032238;27;37182;-76
2021/05/27 13:34:46;;;;;;;9.07;2.72;;;;;;;;;;5038750;28;38802;-76
2021/05/27 13:37:14;;;;;;;17.23;4.43;;;;;;;;;;5034812;28;38917;-77
2021/05/27 13:39:40;;;;;;;8.52;2.85;;;;;;;;;;5060315;28;38664;-76
2021/05/27 13:42:07;;;;;;;13.05;3.50;;;;;;;;;;5034609;28;36692;-76
2021/05/27 13:44:33;;;;;;;8.82;2.88;;;;;;;;;;5058918;28;39975;-77
2021/05/27 13:47:00;;;;;;;9.20;2.42;;;;;;;;;;5053287;28;38844;-75
2021/05/27 13:49:27;;;;;;;12.15;2.72;;;;;;;;;;5047230;28;47903;-77
2021/05/27 13:51:54;;;;;;;9.13;2.75;;;;;;;;;;5066679;28;36901;-77
2021/05/27 13:54:21;;;;;;;12.00;2.72;;;;;;;;;;5053441;28;38791;-79
2021/05/27 13:56:47;;;;;;;10.35;3.08;;;;;;;;;;5033566;28;38374;-77
2021/05/27 13:59:14;;;;;;;7.13;2.55;;;;;;;;;;5038182;27;39467;-78
2021/05/27 14:01:41;;;;;;;12.45;3.35;;;;;;;;;;5062668;27;37364;-80
2021/05/27 14:04:08;;;;;;;11.30;2.40;;;;;;;;;;5039513;28;40066;-79
2021/05/27 14:06:37;;;;;;;17.35;3.15;;;;;;;;;;5066821;28;38333;-76
2021/05/27 14:09:07;;;;;;;11.98;2.70;;;;;;;;;;5068021;28;36499;-78
2021/05/27 14:11:35;;;;;;;8.60;2.42;;;;;;;;;;5030836;27;36868;-75
2021/05/27 14:14:02;;;;;;;13.32;4.57;;;;;;;;;;5044349;28;38919;-78
2021/05/27 14:16:28;;;;;;;10.27;2.70;;;;;;;;;;5039978;28;48913;-78
2021/05/27 14:18:55;;;;;;;14.65;3.35;;;;;;;;;;5037986;28;37783;-77
2021/05/27 14:21:22;;;;;;;10.75;2.97;;;;;;;;;;5061826;28;37542;-78
2021/05/27 14:23:48;;;;;;;9.07;2.50;;;;;;;;;;5038519;28;39113;-77
2021/05/27 14:26:15;;;;;;;8.23;2.72;;;;;;;;;;5059933;27;38357;-78
2021/05/27 14:28:41;;;;;;;8.23;2.33;;;;;;;;;;5036194;28;37489;-76
2021/05/27 14:31:08;;;;;;;6.82;2.47;;;;;;;;;;5035717;28;35903;-77
2021/05/27 14:33:34;;;;;;;7.22;2.20;;;;;;;;;;5041976;28;38707;-76
2021/05/27 14:36:01;;;;;;;7.07;2.72;;;;;;;;;;5031667;28;39115;-76
2021/05/27 14:38:27;;;;;;;10.15;2.85;;;;;;;;;;5055580;27;47502;-76
2021/05/27 14:40:53;;;;;;;5.90;1.77;;;;;;;;;;5053434;28;37620;-77
2021/05/27 14:43:20;;;;;;;7.20;1.58;;;;;;;;;;5050532;28;39360;-76
2021/05/27 14:45:47;;;;;;;9.65;2.97;;;;;;;;;;5052384;27;39639;-77
2021/05/27 14:48:13;;;;;;;5.70;1.48;;;;;;;;;;5061607;27;38438;-77
2021/05/27 14:50:41;;;;;;;6.43;1.98;;;;;;;;;;5052578;28;37882;-77